Airport View

Enter AWOS ICAO identifier for current METAR.

ex. KFNL

PAKH 261156Z AUTO 26006KT 3SM BR OVC005 A3023 RMK AO2 RAE20UPB03E25 CIG 003V009 SLPNO P0000 60000 51003 FZRANO $

26 Jun 2019 12:02

Frequency: 118.325

Phone: 907-836-2207

Other Area AWOS: PADQ

TAF PADQ 261134Z 2612/2712 VRB03KT P6SM SKC FM262000 06008KT P6SM FEW050 SCT080